Time;durP1;ratioP1;P1;durP2;ratioP2;P2;SDS_P1;SDS_P2;PMS_P1;PMS_P2;Temp;Humidity;BMP_temperature;BMP_pressure;BME280_temperature;BME280_humidity;BME280_pressure;Samples;Min_cycle;Max_cycle;Signal;HPM_P1;HPM_P2
2022/01/03 00:02:08;;;;;;;5.57;4.97;;;10.30;38.50;;;;;;10354217;28;20230;-72
2022/01/03 00:07:12;;;;;;;7.33;5.33;;;10.20;38.80;;;;;;10353190;28;20242;-72
2022/01/03 00:12:15;;;;;;;5.43;4.93;;;10.10;38.80;;;;;;10350015;28;20225;-72
2022/01/03 00:17:20;;;;;;;6.53;5.07;;;10.10;38.80;;;;;;10346432;28;20936;-73
2022/01/03 00:22:25;;;;;;;6.23;4.30;;;10.10;39.00;;;;;;10351376;28;20226;-72
2022/01/03 00:27:36;;;;;;;5.93;4.77;;;10.10;39.00;;;;;;10360952;28;20257;-72
2022/01/03 00:32:44;;;;;;;5.33;3.83;;;10.20;39.20;;;;;;10351680;28;20609;-72
2022/01/03 00:37:48;;;;;;;3.53;2.70;;;10.20;39.30;;;;;;10352110;28;20230;-72
2022/01/03 00:42:51;;;;;;;2.37;1.90;;;10.20;40.20;;;;;;10353107;28;20246;-72
2022/01/03 00:47:56;;;;;;;2.47;1.63;;;10.40;40.30;;;;;;10351930;28;20593;-72
2022/01/03 00:52:59;;;;;;;2.10;1.50;;;10.70;40.50;;;;;;10354600;28;20245;-72
2022/01/03 00:58:07;;;;;;;2.00;1.60;;;11.10;40.90;;;;;;10346085;28;20229;-72
2022/01/03 01:03:15;;;;;;;1.67;1.50;;;11.60;41.30;;;;;;10356224;28;20238;-73
2022/01/03 01:08:21;;;;;;;2.40;1.40;;;12.00;40.70;;;;;;10348381;28;20245;-72
2022/01/03 01:13:24;;;;;;;1.57;1.33;;;12.40;40.50;;;;;;10351492;28;20230;-72
2022/01/03 01:18:31;;;;;;;1.20;1.10;;;12.70;40.40;;;;;;10352006;28;20237;-72
2022/01/03 01:23:35;;;;;;;2.40;1.50;;;12.90;40.00;;;;;;10350635;28;20234;-73
2022/01/03 01:28:38;;;;;;;2.83;1.50;;;13.10;39.90;;;;;;10353225;28;20226;-72
2022/01/03 01:33:44;;;;;;;2.30;1.50;;;13.30;39.60;;;;;;10344866;28;20233;-72
2022/01/03 01:38:51;;;;;;;1.43;1.20;;;13.50;39.60;;;;;;10349023;28;20645;-72
2022/01/03 01:43:58;;;;;;;1.77;1.40;;;13.60;39.40;;;;;;10347876;28;20233;-72
2022/01/03 01:49:06;;;;;;;2.83;1.43;;;13.70;39.30;;;;;;10346696;28;20231;-72
2022/01/03 01:54:15;;;;;;;1.47;1.20;;;13.90;39.20;;;;;;10352148;28;20230;-72
2022/01/03 01:59:22;;;;;;;2.10;1.20;;;13.90;39.00;;;;;;10352525;28;20234;-72
2022/01/03 02:04:41;;;;;;;2.00;1.57;;;14.00;39.00;;;;;;10356066;28;20236;-72
2022/01/03 02:10:03;;;;;;;3.87;1.67;;;14.00;38.60;;;;;;10356482;28;20759;-72
2022/01/03 02:15:11;;;;;;;2.27;1.30;;;14.10;38.80;;;;;;10354055;28;20234;-72
2022/01/03 02:20:20;;;;;;;2.00;1.30;;;14.10;38.80;;;;;;10360343;28;20210;-78
2022/01/03 02:25:25;;;;;;;2.67;1.40;;;14.20;38.60;;;;;;10361339;28;20240;-78
2022/01/03 02:30:30;;;;;;;2.80;1.27;;;14.20;38.70;;;;;;10359101;28;20233;-78
2022/01/03 02:35:39;;;;;;;2.13;1.20;;;14.20;38.50;;;;;;10358446;28;20613;-78
2022/01/03 02:40:43;;;;;;;3.20;1.47;;;14.30;38.30;;;;;;10353818;28;20245;-78
2022/01/03 02:45:46;;;;;;;2.87;1.53;;;14.30;38.60;;;;;;10358930;28;20222;-78
2022/01/03 02:50:50;;;;;;;2.50;1.20;;;14.30;38.60;;;;;;10357429;28;20250;-79
2022/01/03 02:55:54;;;;;;;2.30;1.30;;;14.30;38.30;;;;;;10352693;28;20230;-78
2022/01/03 03:00:57;;;;;;;3.03;1.30;;;14.30;38.50;;;;;;10361171;28;20227;-79
2022/01/03 03:06:01;;;;;;;2.07;1.03;;;14.30;38.40;;;;;;10357522;28;20230;-78
2022/01/03 03:11:05;;;;;;;2.17;1.23;;;14.30;38.20;;;;;;10351292;28;20597;-71
2022/01/03 03:16:08;;;;;;;1.73;1.00;;;14.30;38.30;;;;;;10352290;28;20606;-72
2022/01/03 03:21:12;;;;;;;1.43;1.13;;;14.30;38.30;;;;;;10351156;28;20223;-71
2022/01/03 03:26:15;;;;;;;1.80;1.33;;;14.30;38.00;;;;;;10351493;28;20238;-71
2022/01/03 03:31:19;;;;;;;1.50;1.10;;;14.30;38.20;;;;;;10352169;28;20230;-71
2022/01/03 03:36:23;;;;;;;1.93;1.20;;;14.40;38.20;;;;;;10354346;28;20266;-71
2022/01/03 03:41:27;;;;;;;3.60;1.53;;;14.30;38.00;;;;;;10350705;28;20245;-71
2022/01/03 03:46:30;;;;;;;3.13;1.33;;;14.30;38.10;;;;;;10352219;28;20237;-71
2022/01/03 03:56:52;;;;;;;3.13;1.10;;;14.30;38.00;;;;;;10468372;27;21322;-71
2022/01/03 04:01:56;;;;;;;2.17;0.90;;;14.20;37.70;;;;;;10446488;28;20217;-71
2022/01/03 04:06:59;;;;;;;2.30;1.30;;;14.30;37.90;;;;;;10449740;28;20578;-71
2022/01/03 04:12:05;;;;;;;2.80;1.13;;;14.30;37.80;;;;;;10436034;28;20796;-72
2022/01/03 04:17:09;;;;;;;2.97;1.30;;;14.30;37.70;;;;;;10448420;28;20668;-71
2022/01/03 04:22:12;;;;;;;2.53;1.20;;;14.30;37.70;;;;;;10447725;28;20760;-71
2022/01/03 04:27:17;;;;;;;2.60;1.17;;;14.30;37.70;;;;;;10453737;28;20868;-71
2022/01/03 04:32:20;;;;;;;2.23;1.17;;;14.30;38.40;;;;;;10452899;28;20225;-71
2022/01/03 04:37:23;;;;;;;3.63;1.10;;;14.30;37.70;;;;;;10453354;28;20232;-71
2022/01/03 04:42:27;;;;;;;2.43;1.13;;;14.30;37.70;;;;;;10450561;28;20784;-71
2022/01/03 04:47:31;;;;;;;2.80;1.30;;;14.30;37.70;;;;;;10427613;28;20237;-71
2022/01/03 04:52:34;;;;;;;1.53;1.10;;;14.30;37.70;;;;;;10444866;28;20229;-71
2022/01/03 04:57:38;;;;;;;2.43;1.13;;;14.30;37.70;;;;;;10452730;28;20235;-71
2022/01/03 05:02:41;;;;;;;2.83;1.20;;;14.20;37.60;;;;;;10451942;28;20220;-71
2022/01/03 05:07:45;;;;;;;2.70;1.13;;;14.20;37.60;;;;;;10426758;28;20230;-71
2022/01/03 05:12:50;;;;;;;2.40;1.23;;;14.20;37.60;;;;;;10421931;28;20221;-71
2022/01/03 05:17:53;;;;;;;2.70;1.10;;;14.20;37.30;;;;;;10420823;28;20238;-71
2022/01/03 05:22:56;;;;;;;1.67;1.10;;;14.20;37.20;;;;;;10419346;28;20220;-71
2022/01/03 05:28:01;;;;;;;1.53;0.90;;;14.10;37.10;;;;;;10414792;28;20235;-71
2022/01/03 05:33:04;;;;;;;1.00;0.90;;;14.10;36.90;;;;;;10422426;28;20566;-72
2022/01/03 05:38:07;;;;;;;1.37;0.83;;;13.90;36.40;;;;;;10422334;28;20237;-71
2022/01/03 05:43:12;;;;;;;1.03;0.80;;;13.70;36.50;;;;;;10416593;28;20229;-71
2022/01/03 05:48:15;;;;;;;1.23;0.70;;;13.60;36.50;;;;;;10424335;28;20717;-71
2022/01/03 05:53:18;;;;;;;1.87;0.70;;;13.40;36.70;;;;;;10421237;28;20233;-71
2022/01/03 05:58:23;;;;;;;0.93;0.70;;;13.30;36.80;;;;;;10423683;28;20237;-71
2022/01/03 06:03:29;;;;;;;1.37;0.80;;;13.20;36.70;;;;;;10418697;28;20221;-71
2022/01/03 06:08:32;;;;;;;0.70;0.60;;;13.10;36.90;;;;;;10417321;28;20325;-71
2022/01/03 06:13:37;;;;;;;0.70;0.70;;;13.00;37.00;;;;;;10416635;28;20237;-71
2022/01/03 06:18:40;;;;;;;0.50;0.50;;;13.00;37.00;;;;;;10415925;28;20233;-71
2022/01/03 06:23:44;;;;;;;0.93;0.70;;;12.90;37.00;;;;;;10415642;28;20573;-71
2022/01/03 06:28:48;;;;;;;0.73;0.60;;;12.90;37.10;;;;;;10423613;28;20235;-71
2022/01/03 06:33:51;;;;;;;0.80;0.70;;;12.80;37.70;;;;;;10421473;28;20236;-71
2022/01/03 06:38:55;;;;;;;0.67;0.67;;;12.80;37.00;;;;;;10420862;28;20227;-71
2022/01/03 06:43:59;;;;;;;1.83;1.10;;;12.70;37.00;;;;;;10416092;28;20225;-71
2022/01/03 06:49:05;;;;;;;3.47;2.27;;;12.60;37.20;;;;;;10416486;28;20585;-72
2022/01/03 06:54:10;;;;;;;5.07;3.63;;;12.60;37.20;;;;;;10414285;28;20237;-71
2022/01/03 06:59:15;;;;;;;3.60;2.70;;;12.50;37.20;;;;;;10422441;28;20235;-71
2022/01/03 07:04:18;;;;;;;2.27;1.80;;;12.40;37.40;;;;;;10420395;28;20261;-71
2022/01/03 07:09:21;;;;;;;3.13;1.80;;;12.30;37.30;;;;;;10420339;28;21210;-71
2022/01/03 07:19:51;;;;;;;1.60;1.50;;;12.20;37.60;;;;;;10415744;28;20251;-71
2022/01/03 07:24:55;;;;;;;1.50;1.40;;;12.20;38.40;;;;;;10414801;28;20249;-71
2022/01/03 07:30:02;;;;;;;1.23;1.20;;;12.20;37.70;;;;;;10415954;28;20235;-71
2022/01/03 07:35:06;;;;;;;1.00;1.00;;;12.10;38.00;;;;;;10415639;28;20240;-72
2022/01/03 07:40:10;;;;;;;1.00;1.00;;;12.10;37.90;;;;;;10417109;28;20229;-71
2022/01/03 07:45:14;;;;;;;1.30;0.70;;;12.00;38.90;;;;;;10415097;28;20232;-72
2022/01/03 07:50:18;;;;;;;1.47;0.77;;;12.00;38.50;;;;;;10416639;28;20229;-71
2022/01/03 07:55:22;;;;;;;1.20;1.10;;;11.90;38.30;;;;;;10414575;28;20243;-71
2022/01/03 08:00:27;;;;;;;0.67;0.67;;;11.90;38.40;;;;;;10416169;28;20312;-71
2022/01/03 08:05:30;;;;;;;7.13;2.10;;;11.90;38.90;;;;;;10416277;28;20227;-71
2022/01/03 08:10:33;;;;;;;9.47;8.47;;;11.80;38.50;;;;;;10416197;28;20229;-72
2022/01/03 08:15:39;;;;;;;4.07;3.27;;;11.70;38.60;;;;;;10412302;28;20226;-71
2022/01/03 08:20:42;;;;;;;2.20;2.00;;;11.70;39.00;;;;;;10416146;28;20777;-72
2022/01/03 08:25:46;;;;;;;2.50;2.30;;;11.50;38.80;;;;;;10418997;28;20224;-73
2022/01/03 08:30:50;;;;;;;2.60;2.20;;;11.40;38.90;;;;;;10417697;28;20724;-73
2022/01/03 08:35:53;;;;;;;2.80;2.57;;;11.20;39.40;;;;;;10419038;28;20222;-72
2022/01/03 08:40:56;;;;;;;3.00;2.67;;;11.30;39.40;;;;;;10417167;28;20232;-72
2022/01/03 08:46:01;;;;;;;4.43;3.00;;;11.30;39.60;;;;;;10423779;28;20240;-72
2022/01/03 08:51:05;;;;;;;3.60;2.67;;;11.20;40.00;;;;;;10419437;28;20272;-72
2022/01/03 08:56:08;;;;;;;2.90;2.63;;;11.20;39.90;;;;;;10422768;28;20237;-72
2022/01/03 09:01:13;;;;;;;5.57;3.70;;;11.30;40.20;;;;;;10426986;28;20232;-72
2022/01/03 09:06:16;;;;;;;4.80;4.40;;;11.30;40.50;;;;;;10420377;28;20257;-73
2022/01/03 09:11:20;;;;;;;5.47;3.80;;;11.30;40.30;;;;;;10422522;28;20713;-73
2022/01/03 09:16:24;;;;;;;3.47;2.90;;;11.40;40.40;;;;;;10421358;28;20233;-73
2022/01/03 09:21:28;;;;;;;4.40;2.23;;;11.50;40.90;;;;;;10422010;28;20228;-73
2022/01/03 09:31:56;;;;;;;5.23;2.03;;;11.70;40.70;;;;;;10417333;28;20233;-73
2022/01/03 09:37:00;;;;;;;8.30;2.93;;;12.00;41.00;;;;;;10418888;28;20244;-72
2022/01/03 09:42:07;;;;;;;3.20;2.10;;;12.20;40.80;;;;;;10422534;28;20228;-73
2022/01/03 09:47:15;;;;;;;3.87;1.60;;;12.40;40.60;;;;;;10416834;28;20225;-73
2022/01/03 09:52:24;;;;;;;3.77;1.60;;;12.50;40.30;;;;;;10419023;28;20224;-73
2022/01/03 09:57:29;;;;;;;4.47;1.50;;;12.70;40.30;;;;;;10422632;28;20232;-73
2022/01/03 10:02:33;;;;;;;3.00;1.93;;;12.80;40.20;;;;;;10419596;28;20729;-73
2022/01/03 10:07:39;;;;;;;2.73;1.13;;;13.00;40.10;;;;;;10414390;28;20309;-72
2022/01/03 10:12:43;;;;;;;3.63;2.00;;;13.10;40.00;;;;;;10417149;28;20235;-73
2022/01/03 10:17:48;;;;;;;3.23;1.87;;;13.20;40.00;;;;;;10417047;28;20226;-73
2022/01/03 10:22:51;;;;;;;3.70;1.70;;;13.30;40.00;;;;;;10418100;28;20225;-73
2022/01/03 10:27:56;;;;;;;6.33;1.77;;;13.40;39.90;;;;;;10421850;28;20237;-73
2022/01/03 10:33:02;;;;;;;3.17;1.57;;;13.40;39.60;;;;;;10416711;28;20217;-72
2022/01/03 10:38:06;;;;;;;2.77;1.60;;;13.50;39.60;;;;;;10423090;28;20701;-73
2022/01/03 10:43:15;;;;;;;1.67;1.30;;;13.50;39.60;;;;;;10413248;28;20224;-72
2022/01/03 10:48:32;;;;;;;6.17;1.50;;;13.70;39.50;;;;;;10419691;28;20773;-73
2022/01/03 10:53:38;;;;;;;2.90;1.37;;;13.70;39.30;;;;;;10418880;28;20228;-73
2022/01/03 10:58:41;;;;;;;4.37;1.90;;;13.80;39.40;;;;;;10417889;28;20237;-73
2022/01/03 11:03:46;;;;;;;4.30;1.60;;;13.90;39.40;;;;;;10415327;28;20217;-73
2022/01/03 11:14:30;;;;;;;3.50;2.00;;;13.90;39.00;;;;;;10413272;28;20623;-73
2022/01/03 11:19:39;;;;;;;2.47;1.90;;;14.00;38.80;;;;;;10415174;28;20248;-73
2022/01/03 11:24:48;;;;;;;4.70;2.00;;;14.00;38.70;;;;;;10414130;28;20304;-72
2022/01/03 11:29:52;;;;;;;4.30;1.53;;;14.00;38.90;;;;;;10419010;28;20216;-72
2022/01/03 11:34:58;;;;;;;1.80;1.27;;;14.00;39.00;;;;;;10411189;28;20218;-73
2022/01/03 11:40:02;;;;;;;4.67;1.50;;;14.00;39.00;;;;;;10416106;28;20236;-72
2022/01/03 11:45:07;;;;;;;2.30;1.20;;;14.10;39.00;;;;;;10415535;28;20275;-72
2022/01/03 11:50:12;;;;;;;2.30;1.30;;;14.20;39.00;;;;;;10419551;28;20229;-73
2022/01/03 11:55:17;;;;;;;3.10;1.30;;;14.20;38.80;;;;;;10412760;28;20332;-73
2022/01/03 12:05:43;;;;;;;2.80;1.57;;;14.30;38.70;;;;;;10413428;28;20236;-72
2022/01/03 12:10:47;;;;;;;5.20;1.60;;;14.30;38.60;;;;;;10412258;28;20234;-73
2022/01/03 12:16:05;;;;;;;2.30;1.30;;;14.30;38.50;;;;;;10420550;28;20229;-73
2022/01/03 12:21:09;;;;;;;2.60;1.30;;;14.40;38.00;;;;;;10418512;28;20233;-73
2022/01/03 12:26:17;;;;;;;3.33;1.37;;;14.40;38.20;;;;;;10429721;28;20229;-73
2022/01/03 12:31:20;;;;;;;10.50;7.87;;;14.40;38.00;;;;;;10423876;28;20236;-73
2022/01/03 12:36:25;;;;;;;9.47;6.10;;;14.40;38.30;;;;;;10421409;28;20241;-73
2022/01/03 12:41:44;;;;;;;3.90;3.03;;;14.50;38.10;;;;;;10419833;28;20248;-72
2022/01/03 12:47:07;;;;;;;3.60;1.90;;;14.50;37.80;;;;;;10421819;28;20241;-72
2022/01/03 12:52:18;;;;;;;3.70;1.43;;;14.50;38.40;;;;;;10420590;28;20308;-72
2022/01/03 12:57:31;;;;;;;4.47;1.60;;;14.50;37.90;;;;;;10418852;28;20233;-73
2022/01/03 13:02:34;;;;;;;2.57;1.17;;;14.50;37.90;;;;;;10421314;28;20224;-73
2022/01/03 13:07:39;;;;;;;2.27;1.40;;;14.60;38.30;;;;;;10421869;28;20229;-71
2022/01/03 13:12:45;;;;;;;3.70;1.60;;;14.50;38.20;;;;;;10425728;28;20229;-70
2022/01/03 13:17:48;;;;;;;3.57;1.57;;;14.50;37.90;;;;;;10422836;28;20239;-74
2022/01/03 13:22:53;;;;;;;4.57;1.33;;;14.60;38.20;;;;;;10420305;28;20728;-69
2022/01/03 13:27:56;;;;;;;3.40;1.43;;;14.60;37.90;;;;;;10417203;28;20225;-72
2022/01/03 13:32:59;;;;;;;2.63;1.30;;;14.60;37.90;;;;;;10421741;28;20240;-72
2022/01/03 13:38:17;;;;;;;2.30;1.30;;;14.70;38.00;;;;;;10430869;28;20224;-72
2022/01/03 13:43:27;;;;;;;3.03;1.50;;;14.60;37.40;;;;;;10419441;28;20423;-72
2022/01/03 13:53:55;;;;;;;3.87;1.70;;;14.60;37.40;;;;;;10416982;28;20788;-72
2022/01/03 13:59:00;;;;;;;3.00;1.70;;;14.60;37.60;;;;;;10422294;28;20247;-72
2022/01/03 14:04:04;;;;;;;2.87;1.37;;;14.60;37.90;;;;;;10420749;28;20742;-72
2022/01/03 14:09:14;;;;;;;2.50;1.40;;;14.50;37.80;;;;;;10417119;28;20233;-72
2022/01/03 14:14:38;;;;;;;3.70;1.83;;;14.50;37.40;;;;;;10414765;28;20229;-73
2022/01/03 14:19:41;;;;;;;3.23;1.60;;;14.50;37.70;;;;;;10415309;28;20230;-70
2022/01/03 14:24:58;;;;;;;4.10;1.67;;;14.60;37.70;;;;;;10411008;28;20637;-71
2022/01/03 14:30:18;;;;;;;2.83;1.40;;;14.60;36.70;;;;;;10416491;28;20252;-71
2022/01/03 14:35:33;;;;;;;4.73;1.73;;;14.60;37.00;;;;;;10413514;28;20225;-71
2022/01/03 14:40:43;;;;;;;3.30;2.00;;;14.50;36.90;;;;;;10412412;28;20331;-70
2022/01/03 14:45:47;;;;;;;3.70;2.00;;;14.50;36.90;;;;;;10412355;28;20235;-71
2022/01/03 14:51:06;;;;;;;2.20;1.30;;;14.40;37.40;;;;;;10413509;28;20350;-71
2022/01/03 14:56:26;;;;;;;3.60;1.47;;;14.40;37.00;;;;;;10411332;28;20233;-71
2022/01/03 15:01:29;;;;;;;2.73;1.33;;;14.40;36.80;;;;;;10414682;28;20228;-70
2022/01/03 15:06:33;;;;;;;3.47;1.50;;;14.40;37.20;;;;;;10409112;28;20235;-70
2022/01/03 15:11:37;;;;;;;2.10;1.37;;;14.40;37.10;;;;;;10409487;28;20218;-70
2022/01/03 15:16:40;;;;;;;2.97;1.50;;;14.40;37.00;;;;;;10413729;28;20312;-70
2022/01/03 15:21:44;;;;;;;4.17;1.77;;;14.40;37.00;;;;;;10409191;28;20228;-70
2022/01/03 15:26:48;;;;;;;2.57;1.50;;;14.40;37.00;;;;;;10414979;28;20710;-70
2022/01/03 15:31:52;;;;;;;3.37;1.70;;;14.40;36.80;;;;;;10410810;28;20232;-70
2022/01/03 15:36:55;;;;;;;3.67;1.63;;;14.30;36.90;;;;;;10412788;28;20652;-70
2022/01/03 15:42:00;;;;;;;3.40;2.10;;;14.30;37.00;;;;;;10420945;28;20224;-71
2022/01/03 15:47:04;;;;;;;4.40;2.23;;;14.30;36.70;;;;;;10422582;28;20231;-72
2022/01/03 15:52:08;;;;;;;2.90;2.00;;;14.30;36.80;;;;;;10417084;28;20241;-71
2022/01/03 15:57:12;;;;;;;2.83;1.70;;;14.20;36.70;;;;;;10425948;28;20229;-71
2022/01/03 16:02:15;;;;;;;2.30;1.40;;;14.20;36.70;;;;;;10416804;28;20595;-71
2022/01/03 16:07:19;;;;;;;4.03;1.60;;;14.20;36.90;;;;;;10418939;28;20252;-71
2022/01/03 16:12:24;;;;;;;2.10;1.47;;;14.20;36.90;;;;;;10417807;28;20701;-71
2022/01/03 16:17:27;;;;;;;2.60;1.67;;;14.20;36.60;;;;;;10423062;28;20719;-70
2022/01/03 16:22:30;;;;;;;4.93;1.77;;;14.20;36.80;;;;;;10430226;28;20316;-70
2022/01/03 16:27:35;;;;;;;4.63;1.70;;;14.20;36.80;;;;;;10426458;28;20583;-69
2022/01/03 16:32:38;;;;;;;3.83;1.73;;;14.20;36.70;;;;;;10417430;28;20225;-69
2022/01/03 16:37:42;;;;;;;3.17;1.70;;;14.20;36.60;;;;;;10417145;28;20236;-69
2022/01/03 16:42:46;;;;;;;3.17;1.80;;;14.20;36.70;;;;;;10423890;28;20316;-69
2022/01/03 16:47:49;;;;;;;4.33;1.90;;;14.20;36.70;;;;;;10428744;28;20229;-69
2022/01/03 16:52:53;;;;;;;3.57;1.63;;;14.10;36.70;;;;;;10420220;28;20235;-69
2022/01/03 16:57:58;;;;;;;3.70;1.80;;;14.10;36.80;;;;;;10416884;28;20230;-71
2022/01/03 17:03:01;;;;;;;3.50;1.60;;;14.10;36.50;;;;;;10419563;28;20725;-69
2022/01/03 17:08:05;;;;;;;3.03;1.70;;;14.10;36.70;;;;;;10426121;28;20229;-69
2022/01/03 17:13:10;;;;;;;4.00;1.60;;;14.10;36.60;;;;;;10423885;28;20236;-69
2022/01/03 17:18:14;;;;;;;3.37;1.60;;;14.10;36.40;;;;;;10422910;28;20232;-69
2022/01/03 17:23:17;;;;;;;3.60;1.50;;;14.10;36.60;;;;;;10421429;28;20228;-69
2022/01/03 17:28:23;;;;;;;6.87;4.40;;;14.10;36.60;;;;;;10422707;28;20221;-69
2022/01/03 17:33:32;;;;;;;3.20;2.20;;;14.00;36.30;;;;;;10420315;28;20217;-69
2022/01/03 17:38:36;;;;;;;4.47;1.97;;;14.00;36.40;;;;;;10415928;28;20237;-69
2022/01/03 17:43:41;;;;;;;3.10;1.53;;;14.00;36.50;;;;;;10417398;28;20224;-69
2022/01/03 17:48:44;;;;;;;2.50;1.40;;;14.00;36.30;;;;;;10419464;28;21071;-69
2022/01/03 17:53:48;;;;;;;2.83;1.70;;;14.00;36.40;;;;;;10417168;28;20618;-69
2022/01/03 17:58:53;;;;;;;3.27;1.80;;;14.00;36.50;;;;;;10419384;28;20228;-69
2022/01/03 18:04:01;;;;;;;2.83;1.40;;;14.00;36.30;;;;;;10417553;28;20225;-72
2022/01/03 18:09:05;;;;;;;3.10;1.63;;;14.00;36.40;;;;;;10416283;28;20236;-69
2022/01/03 18:14:10;;;;;;;2.67;1.50;;;14.00;36.40;;;;;;10415806;28;20233;-70
2022/01/03 18:19:13;;;;;;;2.57;1.50;;;14.00;36.20;;;;;;10418348;28;20236;-69
2022/01/03 18:24:16;;;;;;;2.47;1.67;;;14.00;36.30;;;;;;10421184;28;20234;-70
2022/01/03 18:29:21;;;;;;;1.20;1.10;;;14.00;36.30;;;;;;10419201;28;20224;-69
2022/01/03 18:34:26;;;;;;;1.80;1.20;;;14.00;36.10;;;;;;10412787;28;20240;-69
2022/01/03 18:39:29;;;;;;;2.17;1.30;;;14.00;36.20;;;;;;10418201;28;20225;-69
2022/01/03 18:44:34;;;;;;;3.20;1.70;;;14.00;36.30;;;;;;10415908;28;20540;-69
2022/01/03 18:49:38;;;;;;;2.60;1.67;;;14.00;36.00;;;;;;10417532;28;20228;-69
2022/01/03 18:54:41;;;;;;;1.90;1.40;;;14.00;36.20;;;;;;10417892;28;20222;-69
2022/01/03 18:59:46;;;;;;;2.73;1.60;;;14.00;36.20;;;;;;10423295;28;20228;-69
2022/01/03 19:04:49;;;;;;;2.63;1.70;;;14.00;36.10;;;;;;10421397;28;20267;-69
2022/01/03 19:09:52;;;;;;;1.97;1.40;;;14.00;36.20;;;;;;10407733;28;20221;-69
2022/01/03 19:14:57;;;;;;;3.30;1.50;;;14.00;36.10;;;;;;10414773;28;20232;-70
2022/01/03 19:20:00;;;;;;;1.43;1.20;;;14.00;36.20;;;;;;10410704;28;20236;-69
2022/01/03 19:25:04;;;;;;;1.63;1.20;;;14.00;36.20;;;;;;10405395;28;20785;-70
2022/01/03 19:30:10;;;;;;;1.60;1.20;;;14.00;36.20;;;;;;10415795;28;20788;-70
2022/01/03 19:40:54;;;;;;;3.40;1.30;;;13.90;36.20;;;;;;10416553;28;20229;-70
2022/01/03 19:45:59;;;;;;;2.13;1.20;;;13.90;36.30;;;;;;10411968;28;20669;-70
2022/01/03 19:51:03;;;;;;;2.43;1.17;;;13.90;36.20;;;;;;10405655;28;20229;-70
2022/01/03 19:56:07;;;;;;;2.23;1.10;;;13.80;36.90;;;;;;10414097;28;20229;-69
2022/01/03 20:01:11;;;;;;;3.40;1.37;;;13.90;36.30;;;;;;10408974;28;20236;-69
2022/01/03 20:06:15;;;;;;;5.57;2.63;;;13.90;36.20;;;;;;10411613;28;20340;-69
2022/01/03 20:11:18;;;;;;;1.50;1.30;;;13.90;36.30;;;;;;10412056;28;20221;-69
2022/01/03 20:16:23;;;;;;;2.50;1.30;;;13.90;36.30;;;;;;10416369;28;20232;-69
2022/01/03 20:21:27;;;;;;;3.23;1.50;;;13.80;36.30;;;;;;10413656;28;20229;-69
2022/01/03 20:26:30;;;;;;;1.90;1.50;;;13.80;36.40;;;;;;10409184;28;20237;-69
2022/01/03 20:31:35;;;;;;;2.77;1.47;;;13.80;36.30;;;;;;10406761;28;20228;-70
2022/01/03 20:36:38;;;;;;;1.90;1.30;;;13.80;36.20;;;;;;10414852;28;20324;-69
2022/01/03 20:41:42;;;;;;;2.73;1.30;;;13.70;36.30;;;;;;10421615;28;20236;-69
2022/01/03 20:46:48;;;;;;;2.53;1.40;;;13.70;36.40;;;;;;10417859;28;20585;-69
2022/01/03 20:51:51;;;;;;;2.13;1.43;;;13.70;36.30;;;;;;10422489;28;20651;-69
2022/01/03 20:56:55;;;;;;;1.67;1.40;;;13.60;36.30;;;;;;10421565;28;20225;-69
2022/01/03 21:01:59;;;;;;;2.63;1.90;;;13.60;36.40;;;;;;10420766;28;20221;-69
2022/01/03 21:07:03;;;;;;;3.20;1.90;;;13.60;36.30;;;;;;10417931;28;20706;-70
2022/01/03 21:12:07;;;;;;;2.40;1.70;;;13.60;36.40;;;;;;10422068;28;20232;-77
2022/01/03 21:17:12;;;;;;;3.73;1.70;;;13.60;36.30;;;;;;10421540;28;20301;-71
2022/01/03 21:22:16;;;;;;;2.20;1.33;;;13.60;36.30;;;;;;10423437;28;20228;-75
2022/01/03 21:27:20;;;;;;;1.77;1.40;;;13.50;36.60;;;;;;10422666;28;20222;-70
2022/01/03 21:32:26;;;;;;;2.80;1.40;;;13.50;36.60;;;;;;10421169;28;20225;-69
2022/01/03 21:37:29;;;;;;;1.50;1.30;;;13.50;36.60;;;;;;10420006;28;20228;-70
2022/01/03 21:42:33;;;;;;;4.03;1.40;;;13.40;36.70;;;;;;10421459;28;20232;-71
2022/01/03 21:47:37;;;;;;;1.60;1.13;;;13.50;37.00;;;;;;10418132;28;20226;-76
2022/01/03 21:52:40;;;;;;;3.00;1.40;;;13.40;37.00;;;;;;10419043;28;20217;-72
2022/01/03 21:57:44;;;;;;;1.83;1.60;;;13.40;36.90;;;;;;10419692;28;20312;-76
2022/01/03 22:02:50;;;;;;;4.30;1.60;;;13.40;36.90;;;;;;10418332;28;20228;-69
2022/01/03 22:07:56;;;;;;;2.97;1.80;;;13.40;36.90;;;;;;10425311;28;20232;-71
2022/01/03 22:13:00;;;;;;;2.23;1.43;;;13.40;36.90;;;;;;10422003;28;20660;-71
2022/01/03 22:18:05;;;;;;;1.47;1.30;;;13.30;36.90;;;;;;10425750;28;20440;-71
2022/01/03 22:23:09;;;;;;;1.57;1.20;;;13.30;37.10;;;;;;10425002;28;20757;-71
2022/01/03 22:28:12;;;;;;;2.20;1.20;;;13.30;37.20;;;;;;10419290;28;20225;-68
2022/01/03 22:33:17;;;;;;;3.70;1.30;;;13.30;37.20;;;;;;10420344;28;20228;-69
2022/01/03 22:38:21;;;;;;;2.30;1.47;;;13.30;37.30;;;;;;10422071;28;20214;-69
2022/01/03 22:43:24;;;;;;;2.07;1.00;;;13.30;37.60;;;;;;10423304;28;20720;-69
2022/01/03 22:48:28;;;;;;;2.00;1.30;;;13.30;37.30;;;;;;10418474;28;20217;-69
2022/01/03 22:53:32;;;;;;;2.57;1.27;;;13.30;37.40;;;;;;10420317;28;20435;-69
2022/01/03 22:58:35;;;;;;;1.30;1.20;;;13.40;37.40;;;;;;10418807;28;20229;-69
2022/01/03 23:03:44;;;;;;;2.33;1.40;;;13.40;37.50;;;;;;10419323;28;20298;-76
2022/01/03 23:08:48;;;;;;;1.87;1.37;;;13.40;37.60;;;;;;10417680;28;20787;-76
2022/01/03 23:13:51;;;;;;;3.03;1.70;;;13.40;37.50;;;;;;10421196;28;20611;-76
2022/01/03 23:18:57;;;;;;;1.50;1.40;;;13.40;37.60;;;;;;10416423;28;20727;-76
2022/01/03 23:24:01;;;;;;;2.07;1.40;;;13.40;37.70;;;;;;10418343;28;20225;-76
2022/01/03 23:29:04;;;;;;;1.93;1.33;;;13.40;37.50;;;;;;10422208;28;20235;-76
2022/01/03 23:34:15;;;;;;;2.80;1.70;;;13.40;37.50;;;;;;10419565;28;20315;-76
2022/01/03 23:39:20;;;;;;;1.80;1.50;;;13.40;37.70;;;;;;10417525;28;20226;-76
2022/01/03 23:44:23;;;;;;;2.33;1.57;;;13.30;37.40;;;;;;10416369;28;20773;-76
2022/01/03 23:49:28;;;;;;;2.27;1.57;;;13.20;37.50;;;;;;10420276;28;20702;-76
2022/01/03 23:54:32;;;;;;;2.40;1.60;;;13.10;37.70;;;;;;10416239;28;20660;-76
2022/01/03 23:59:35;;;;;;;2.53;1.50;;;13.00;37.70;;;;;;10417737;28;20259;-76
